Terminal Aerodrome Forecast
Issued by NWS

Home | Current Version | Previous Version | Graphics & Text | Print | Product List | Glossary On
Versions: 1 2 3 4 5 6 7 8 9 10 11 12 13 14 15 16 17 18 19 20 21 22 23 24 25 26 27 28 29 30
000
FTUS43 KTOP 261700
TAFMHK
TAF
KMHK 261729Z 2618/2718 35005KT P6SM SCT110
     FM262300 06005KT P6SM BKN080
     FM270200 04008KT 5SM -RA BR BKN025
     FM270500 03007KT 3SM -RA BR OVC012
     FM270800 02004KT 6SM BR BKN010=

USA.gov is the U.S. government's official web portal to all federal, state and local government web resources and services.